createdAt,value
2023-02-06T00:00:56.374Z,2.75
2023-02-06T00:03:25.280Z,2.73
2023-02-06T00:05:57.829Z,2.72
2023-02-06T00:08:25.596Z,2.67
2023-02-06T00:10:54.640Z,2.64
2023-02-06T00:13:23.118Z,2.64
2023-02-06T00:15:50.860Z,2.61
2023-02-06T00:18:18.489Z,2.60
2023-02-06T00:20:47.744Z,2.64
2023-02-06T00:23:15.564Z,2.56
2023-02-06T00:25:43.467Z,2.53
2023-02-06T00:28:11.095Z,2.49
2023-02-06T00:30:39.467Z,2.42
2023-02-06T00:33:07.404Z,2.41
2023-02-06T00:35:36.219Z,2.41
2023-02-06T00:38:06.676Z,2.36
2023-02-06T00:40:34.609Z,2.40
2023-02-06T00:43:02.204Z,2.39
2023-02-06T00:45:30.125Z,2.37
2023-02-06T00:47:57.870Z,2.42
2023-02-06T00:50:26.097Z,2.43
2023-02-06T00:52:53.853Z,2.44
2023-02-06T00:55:23.877Z,2.45
2023-02-06T00:57:51.440Z,2.44
2023-02-06T01:00:19.941Z,2.44
2023-02-06T01:02:47.722Z,2.41
2023-02-06T01:05:15.981Z,2.41
2023-02-06T01:07:43.586Z,2.39
2023-02-06T01:10:13.258Z,2.34
2023-02-06T01:12:43.527Z,2.32
2023-02-06T01:15:13.535Z,2.30
2023-02-06T01:17:42.626Z,2.27
2023-02-06T01:20:14.439Z,2.28
2023-02-06T01:22:42.996Z,2.27
2023-02-06T01:25:12.879Z,2.24
2023-02-06T01:27:42.341Z,2.24
2023-02-06T01:30:11.577Z,2.23
2023-02-06T01:32:41.208Z,2.22
2023-02-06T01:35:10.869Z,2.19
2023-02-06T01:37:40.052Z,2.11
2023-02-06T01:40:10.484Z,2.02
2023-02-06T01:42:39.253Z,1.95
2023-02-06T01:45:38.889Z,1.92
2023-02-06T01:48:11.404Z,1.89
2023-02-06T01:51:06.634Z,1.92
2023-02-06T01:53:35.980Z,1.95
2023-02-06T01:56:07.783Z,1.91
2023-02-06T01:58:39.379Z,1.92
2023-02-06T02:01:09.462Z,1.87
2023-02-06T02:03:40.558Z,1.82
2023-02-06T02:06:11.566Z,1.79
2023-02-06T02:08:41.807Z,1.79
2023-02-06T02:11:12.325Z,1.78
2023-02-06T02:13:40.427Z,1.77
2023-02-06T02:16:16.429Z,1.79
2023-02-06T02:18:58.868Z,1.77
2023-02-06T02:21:54.153Z,1.78
2023-02-06T02:24:31.890Z,1.77
2023-02-06T02:27:41.238Z,1.81
2023-02-06T02:30:35.996Z,1.82
2023-02-06T02:33:54.491Z,1.83
2023-02-06T02:36:29.309Z,1.87
2023-02-06T02:39:05.031Z,1.87
2023-02-06T02:41:43.666Z,1.88
2023-02-06T02:44:17.529Z,1.91
2023-02-06T02:46:49.344Z,1.94
2023-02-06T02:49:20.945Z,1.97
2023-02-06T02:51:52.640Z,2.00
2023-02-06T02:54:20.864Z,2.03
2023-02-06T02:56:48.690Z,2.04
2023-02-06T02:59:24.034Z,1.99
2023-02-06T03:01:58.186Z,2.00
2023-02-06T03:04:30.917Z,2.03
2023-02-06T03:07:09.504Z,2.03
2023-02-06T03:09:51.125Z,1.95
2023-02-06T03:12:24.677Z,1.96
2023-02-06T03:14:58.106Z,1.95
2023-02-06T03:17:34.227Z,1.96
2023-02-06T03:20:04.004Z,1.98
2023-02-06T03:22:35.559Z,2.00
2023-02-06T03:25:05.621Z,1.98
2023-02-06T03:27:35.293Z,1.98
2023-02-06T03:30:05.246Z,2.02
2023-02-06T03:32:38.618Z,2.02
2023-02-06T03:35:11.192Z,2.05
2023-02-06T03:37:41.279Z,1.99
2023-02-06T03:40:10.109Z,1.98
2023-02-06T03:42:41.886Z,2.01
2023-02-06T03:45:16.859Z,2.00
2023-02-06T03:47:47.648Z,2.07
2023-02-06T03:50:16.328Z,2.04
2023-02-06T03:52:50.071Z,2.02
2023-02-06T03:55:21.870Z,2.02
2023-02-06T03:57:53.082Z,1.99
2023-02-06T04:00:21.840Z,1.88
2023-02-06T04:02:54.712Z,1.84
2023-02-06T04:05:22.409Z,1.86
2023-02-06T04:07:53.132Z,1.84
2023-02-06T04:10:21.168Z,1.81
2023-02-06T04:12:49.030Z,1.82
2023-02-06T04:15:16.885Z,1.73
2023-02-06T04:17:58.775Z,1.71
2023-02-06T04:20:28.037Z,1.67
2023-02-06T04:22:57.686Z,1.67
2023-02-06T04:25:25.794Z,1.65
2023-02-06T04:27:53.878Z,1.65
2023-02-06T04:30:22.261Z,1.64
2023-02-06T04:32:50.279Z,1.61
2023-02-06T04:35:18.819Z,1.62
2023-02-06T04:37:46.450Z,1.64
2023-02-06T04:40:15.716Z,1.68
2023-02-06T04:42:43.295Z,1.59
2023-02-06T04:45:11.560Z,1.60
2023-02-06T04:47:39.497Z,1.62
2023-02-06T04:50:08.077Z,1.61
2023-02-06T04:52:35.688Z,1.61
2023-02-06T04:55:03.566Z,1.61
2023-02-06T04:57:32.646Z,1.63
2023-02-06T05:00:00.567Z,1.65
2023-02-06T05:02:28.296Z,1.61
2023-02-06T05:04:56.373Z,1.60
2023-02-06T05:07:24.927Z,1.58
2023-02-06T05:09:52.770Z,1.53
2023-02-06T05:12:20.342Z,1.51
2023-02-06T05:14:49.801Z,1.52
2023-02-06T05:17:17.722Z,1.53
2023-02-06T05:19:45.530Z,1.52
2023-02-06T05:22:13.165Z,1.49
2023-02-06T05:24:40.768Z,1.48
2023-02-06T05:27:08.395Z,1.41
2023-02-06T05:29:35.989Z,1.38
2023-02-06T05:32:05.174Z,1.38
2023-02-06T05:34:33.072Z,1.35
2023-02-06T05:37:00.758Z,1.33
2023-02-06T05:39:28.734Z,1.38
2023-02-06T05:41:56.344Z,1.37
2023-02-06T05:44:24.895Z,1.36
2023-02-06T05:46:53.131Z,1.33
2023-02-06T05:49:22.080Z,1.32
2023-02-06T05:51:50.022Z,1.29
2023-02-06T05:54:18.431Z,1.25
2023-02-06T05:56:46.214Z,1.20
2023-02-06T05:59:13.822Z,1.16
2023-02-06T06:01:41.497Z,1.09
2023-02-06T06:04:09.485Z,1.05
2023-02-06T06:06:39.110Z,0.82
2023-02-06T06:09:06.860Z,0.83
2023-02-06T06:11:35.423Z,0.77
2023-02-06T06:14:03.143Z,0.70
2023-02-06T06:16:32.161Z,0.49
2023-02-06T06:18:59.773Z,0.41
2023-02-06T06:21:27.845Z,0.48
2023-02-06T06:23:57.162Z,0.45
2023-02-06T06:26:25.281Z,0.40
2023-02-06T06:28:52.948Z,0.35
2023-02-06T06:31:20.984Z,0.30
2023-02-06T06:33:48.643Z,0.22
2023-02-06T06:36:16.638Z,0.17
2023-02-06T06:38:44.271Z,0.13
2023-02-06T06:41:13.831Z,0.08
2023-02-06T06:43:42.228Z,0.02
2023-02-06T06:46:10.366Z,0.03
2023-02-06T06:48:38.645Z,0.00
2023-02-06T06:51:06.646Z,0.00
2023-02-06T06:53:34.562Z,0.00
2023-02-06T06:56:06.592Z,-0.01
2023-02-06T06:58:35.993Z,0.02
2023-02-06T07:01:05.256Z,0.01
2023-02-06T07:03:33.027Z,0.00
2023-02-06T07:06:00.997Z,0.01
2023-02-06T07:08:29.933Z,0.01
2023-02-06T07:10:58.582Z,0.02
2023-02-06T07:13:26.248Z,0.07
2023-02-06T07:15:55.579Z,0.11
2023-02-06T07:18:23.607Z,0.13
2023-02-06T07:20:51.451Z,0.16
2023-02-06T07:23:19.489Z,0.13
2023-02-06T07:25:47.100Z,0.23
2023-02-06T07:28:14.728Z,0.30
2023-02-06T07:30:42.387Z,0.36
2023-02-06T07:33:11.584Z,0.44
2023-02-06T07:35:40.276Z,0.49
2023-02-06T07:38:08.863Z,0.54
2023-02-06T07:40:45.039Z,0.61
2023-02-06T07:43:13.854Z,0.61
2023-02-06T07:45:41.548Z,0.67
2023-02-06T07:48:11.544Z,0.73
2023-02-06T07:50:39.435Z,0.76
2023-02-06T07:53:07.818Z,0.83
2023-02-06T07:55:37.805Z,0.89
2023-02-06T07:58:05.969Z,1.01
2023-02-06T08:00:33.568Z,1.13
2023-02-06T08:03:01.564Z,1.40
2023-02-06T08:05:31.189Z,1.74
2023-02-06T08:07:59.768Z,1.86
2023-02-06T08:10:28.394Z,2.22
2023-02-06T08:12:56.505Z,2.49
2023-02-06T08:15:25.164Z,2.59
2023-02-06T08:17:52.851Z,2.96
2023-02-06T08:20:20.446Z,3.05
2023-02-06T08:22:49.933Z,2.97
2023-02-06T08:25:17.565Z,2.88
2023-02-06T08:27:45.366Z,2.88
2023-02-06T08:30:14.294Z,2.95
2023-02-06T08:32:42.237Z,2.99
2023-02-06T08:35:09.873Z,2.99
2023-02-06T08:37:37.462Z,3.12
2023-02-06T08:40:07.542Z,3.50
2023-02-06T08:42:36.115Z,3.59
2023-02-06T08:45:03.844Z,3.75
2023-02-06T08:47:31.990Z,3.96
2023-02-06T08:50:01.579Z,3.92
2023-02-06T08:52:31.153Z,3.82
2023-02-06T08:54:58.833Z,3.76
2023-02-06T08:57:27.776Z,3.88
2023-02-06T08:59:55.684Z,4.18
2023-02-06T09:02:24.052Z,4.23
2023-02-06T09:04:51.849Z,4.28
2023-02-06T09:07:19.710Z,4.75
2023-02-06T09:09:47.290Z,5.69
2023-02-06T09:12:16.227Z,6.62
2023-02-06T09:14:45.452Z,7.26
2023-02-06T09:17:13.598Z,8.12
2023-02-06T09:19:41.443Z,8.28
2023-02-06T09:22:09.015Z,8.75
2023-02-06T09:24:37.146Z,8.98
2023-02-06T09:27:04.891Z,8.70
2023-02-06T09:29:33.133Z,9.22
2023-02-06T09:32:02.372Z,8.90
2023-02-06T09:34:30.255Z,8.81
2023-02-06T09:36:58.056Z,7.98
2023-02-06T09:39:26.207Z,7.18
2023-02-06T09:41:55.811Z,6.38
2023-02-06T09:44:28.726Z,5.93
2023-02-06T09:47:02.190Z,6.46
2023-02-06T09:49:37.988Z,7.36
2023-02-06T09:52:23.460Z,8.17
2023-02-06T09:55:02.060Z,9.30
2023-02-06T09:57:39.018Z,10.06
2023-02-06T10:00:17.247Z,10.62
2023-02-06T10:03:17.707Z,11.24
2023-02-06T10:05:52.649Z,11.58
2023-02-06T10:08:25.438Z,11.26
2023-02-06T10:10:56.031Z,9.76
2023-02-06T10:13:31.285Z,9.95
2023-02-06T10:16:20.506Z,10.47
2023-02-06T10:18:53.248Z,11.24
2023-02-06T10:21:29.537Z,12.05
2023-02-06T10:24:01.818Z,12.81
2023-02-06T10:26:30.129Z,13.36
2023-02-06T10:29:00.774Z,13.32
2023-02-06T10:31:59.727Z,12.75
2023-02-06T10:34:47.423Z,13.23
2023-02-06T10:37:30.629Z,12.44
2023-02-06T10:40:19.673Z,11.34
2023-02-06T10:42:55.625Z,10.24
2023-02-06T10:45:36.330Z,9.22
2023-02-06T10:48:13.295Z,8.30
2023-02-06T10:50:47.615Z,7.63
2023-02-06T10:53:21.441Z,7.21
2023-02-06T10:55:55.672Z,6.91
2023-02-06T10:58:28.118Z,6.53
2023-02-06T11:00:57.434Z,6.24
2023-02-06T11:03:30.420Z,6.06
2023-02-06T11:05:59.400Z,5.80
2023-02-06T11:08:31.718Z,5.55
2023-02-06T11:10:59.664Z,5.30
2023-02-06T11:13:29.685Z,5.10
2023-02-06T11:16:03.249Z,4.87
2023-02-06T11:18:34.223Z,4.71
2023-02-06T11:21:02.758Z,4.56
2023-02-06T11:23:34.607Z,4.46
2023-02-06T11:26:10.883Z,4.19
2023-02-06T11:28:42.382Z,4.05
2023-02-06T11:31:10.904Z,3.70
2023-02-06T11:33:48.547Z,3.68
2023-02-06T11:36:28.729Z,3.63
2023-02-06T11:39:00.365Z,3.70
2023-02-06T11:41:29.298Z,3.68
2023-02-06T11:44:02.497Z,3.63
2023-02-06T11:46:33.168Z,3.57
2023-02-06T11:49:07.218Z,3.52
2023-02-06T11:51:48.960Z,3.54
2023-02-06T11:54:27.969Z,3.40
2023-02-06T11:56:58.121Z,3.35
2023-02-06T11:59:27.366Z,3.30
2023-02-06T12:01:55.812Z,3.18
2023-02-06T12:04:25.865Z,3.20
2023-02-06T12:06:59.107Z,3.26
2023-02-06T12:09:28.761Z,3.26
2023-02-06T12:12:01.541Z,3.22
2023-02-06T12:14:38.067Z,3.20
2023-02-06T12:17:16.367Z,3.19
2023-02-06T12:19:49.621Z,3.16
2023-02-06T12:22:21.848Z,3.07
2023-02-06T12:24:54.617Z,2.86
2023-02-06T12:27:28.676Z,3.00
2023-02-06T12:30:02.727Z,3.01
2023-02-06T12:32:34.120Z,2.99
2023-02-06T12:35:15.905Z,3.00
2023-02-06T12:37:48.833Z,3.04
2023-02-06T12:40:30.612Z,2.91
2023-02-06T12:43:02.511Z,2.79
2023-02-06T12:45:41.181Z,2.81
2023-02-06T12:48:16.957Z,2.91
2023-02-06T12:50:50.083Z,2.88
2023-02-06T12:53:21.116Z,2.75
2023-02-06T12:55:56.403Z,2.76
2023-02-06T12:58:28.991Z,2.71
2023-02-06T13:01:27.852Z,2.75
2023-02-06T13:04:00.150Z,2.77
2023-02-06T13:06:30.875Z,2.65
2023-02-06T13:09:01.869Z,2.70
2023-02-06T13:11:35.463Z,2.70
2023-02-06T13:14:07.124Z,2.72
2023-02-06T13:16:40.154Z,2.67
2023-02-06T13:19:22.002Z,2.54
2023-02-06T13:21:55.237Z,2.53
2023-02-06T13:24:22.809Z,2.63
2023-02-06T13:27:11.748Z,2.70
2023-02-06T13:29:41.530Z,2.69
2023-02-06T13:32:53.636Z,2.78
2023-02-06T13:35:25.697Z,2.84
2023-02-06T13:38:13.389Z,2.90
2023-02-06T13:40:41.085Z,2.97
2023-02-06T13:43:19.456Z,3.09
2023-02-06T13:45:51.842Z,3.17
2023-02-06T13:48:46.918Z,3.18
2023-02-06T13:51:33.465Z,3.26
2023-02-06T13:54:31.589Z,3.27
2023-02-06T13:57:21.059Z,3.36
2023-02-06T13:59:52.936Z,3.40
2023-02-06T14:02:27.702Z,3.41
2023-02-06T14:04:55.569Z,3.50
2023-02-06T14:07:50.657Z,3.59
2023-02-06T14:10:37.339Z,3.57
2023-02-06T14:13:20.506Z,3.60
2023-02-06T14:15:58.754Z,3.64
2023-02-06T14:18:38.617Z,3.62
2023-02-06T14:21:19.341Z,3.54
2023-02-06T14:24:11.650Z,3.50
2023-02-06T14:26:49.292Z,3.30
2023-02-06T14:29:25.838Z,3.22
2023-02-06T14:32:19.024Z,3.22
2023-02-06T14:35:03.554Z,3.38
2023-02-06T14:37:57.136Z,3.45
2023-02-06T14:40:27.165Z,3.53
2023-02-06T14:42:58.454Z,3.55
2023-02-06T14:45:33.812Z,3.63
2023-02-06T14:48:19.304Z,3.65
2023-02-06T14:50:51.243Z,3.66
2023-02-06T14:53:24.176Z,3.66
2023-02-06T14:55:51.802Z,3.70
2023-02-06T14:58:25.681Z,3.64
2023-02-06T15:00:53.754Z,3.77
2023-02-06T15:03:28.321Z,3.84
2023-02-06T15:06:02.080Z,4.13
2023-02-06T15:08:32.535Z,4.40
2023-02-06T15:11:02.303Z,4.42
2023-02-06T15:13:35.136Z,4.32
2023-02-06T15:16:05.317Z,4.27
2023-02-06T15:18:35.776Z,4.32
2023-02-06T15:21:06.287Z,4.23
2023-02-06T15:23:51.029Z,4.10
2023-02-06T15:26:29.035Z,3.68
2023-02-06T15:28:59.218Z,3.21
2023-02-06T15:31:28.487Z,2.95
2023-02-06T15:34:00.116Z,3.00
2023-02-06T15:36:32.156Z,3.20
2023-02-06T15:39:00.942Z,3.01
2023-02-06T15:41:30.946Z,2.97
2023-02-06T15:44:03.308Z,2.62
2023-02-06T15:46:32.000Z,3.04
2023-02-06T15:49:01.345Z,2.72
2023-02-06T15:51:31.458Z,3.04
2023-02-06T15:54:10.945Z,3.16
2023-02-06T15:56:42.665Z,2.87
2023-02-06T15:59:17.560Z,2.28
2023-02-06T16:01:45.219Z,2.11
2023-02-06T16:04:18.750Z,2.05
2023-02-06T16:06:47.577Z,1.64
2023-02-06T16:09:21.696Z,1.70
2023-02-06T16:11:56.144Z,1.76
2023-02-06T16:14:31.467Z,1.64
2023-02-06T16:17:01.973Z,1.37
2023-02-06T16:19:47.970Z,1.34
2023-02-06T16:22:24.789Z,1.13
2023-02-06T16:24:55.275Z,1.09
2023-02-06T16:27:25.523Z,1.18
2023-02-06T16:29:55.487Z,1.03
2023-02-06T16:32:25.730Z,1.00
2023-02-06T16:34:55.534Z,0.92
2023-02-06T16:37:25.029Z,0.87
2023-02-06T16:39:53.593Z,0.79
2023-02-06T16:42:23.111Z,0.75
2023-02-06T16:44:53.372Z,0.90
2023-02-06T16:47:22.867Z,1.06
2023-02-06T16:49:51.843Z,1.22
2023-02-06T16:52:23.805Z,1.35
2023-02-06T16:54:51.882Z,1.33
2023-02-06T16:57:32.805Z,1.32
2023-02-06T17:00:00.636Z,1.34
2023-02-06T17:02:29.227Z,1.35
2023-02-06T17:04:57.846Z,1.41
2023-02-06T17:07:31.762Z,1.49
2023-02-06T17:10:00.684Z,1.51
2023-02-06T17:12:29.243Z,1.56
2023-02-06T17:14:57.079Z,1.58
2023-02-06T17:17:25.130Z,1.62
2023-02-06T17:19:54.203Z,1.50
2023-02-06T17:22:22.084Z,1.48
2023-02-06T17:24:51.289Z,1.42
2023-02-06T17:27:22.489Z,1.45
2023-02-06T17:29:51.205Z,1.43
2023-02-06T17:32:22.097Z,1.49
2023-02-06T17:34:51.070Z,1.48
2023-02-06T17:37:21.488Z,1.49
2023-02-06T17:39:52.611Z,1.51
2023-02-06T17:42:23.136Z,1.51
2023-02-06T17:44:51.724Z,1.51
2023-02-06T17:47:19.352Z,1.48
2023-02-06T17:49:47.634Z,1.45
2023-02-06T17:52:16.023Z,1.46
2023-02-06T17:54:44.345Z,1.36
2023-02-06T17:57:14.230Z,1.32
2023-02-06T17:59:42.038Z,1.34
2023-02-06T18:02:12.429Z,1.29
2023-02-06T18:04:40.486Z,1.22
2023-02-06T18:07:08.602Z,1.23
2023-02-06T18:09:36.297Z,1.09
2023-02-06T18:12:04.855Z,1.09
2023-02-06T18:14:35.283Z,1.11
2023-02-06T18:17:04.031Z,1.17
2023-02-06T18:19:31.765Z,1.10
2023-02-06T18:22:00.159Z,1.03
2023-02-06T18:24:27.780Z,1.01
2023-02-06T18:26:55.345Z,0.99
2023-02-06T18:29:22.934Z,0.99
2023-02-06T18:31:52.316Z,0.94
2023-02-06T18:34:20.555Z,0.96
2023-02-06T18:36:48.244Z,0.95
2023-02-06T18:39:16.201Z,0.94
2023-02-06T18:42:02.153Z,0.94
2023-02-06T18:44:31.312Z,0.89
2023-02-06T18:47:00.738Z,0.94
2023-02-06T18:49:28.412Z,0.95
2023-02-06T18:51:56.751Z,1.09
2023-02-06T18:54:24.328Z,1.07
2023-02-06T18:56:52.266Z,1.07
2023-02-06T18:59:19.876Z,1.00
2023-02-06T19:01:48.177Z,1.00
2023-02-06T19:04:17.136Z,1.00
2023-02-06T19:06:46.046Z,1.01
2023-02-06T19:09:16.121Z,0.99
2023-02-06T19:11:44.916Z,0.95
2023-02-06T19:14:15.867Z,0.93
2023-02-06T19:16:47.230Z,0.91
2023-02-06T19:19:15.161Z,0.91
2023-02-06T19:21:45.047Z,0.93
2023-02-06T19:24:14.537Z,0.90
2023-02-06T19:26:43.193Z,0.84
2023-02-06T19:29:14.788Z,0.83
2023-02-06T19:31:42.776Z,0.72
2023-02-06T19:34:10.853Z,0.73
2023-02-06T19:36:39.320Z,0.71
2023-02-06T19:39:10.279Z,0.72
2023-02-06T19:41:38.741Z,0.65
2023-02-06T19:44:08.928Z,0.67
2023-02-06T19:46:37.346Z,0.68
2023-02-06T19:49:08.481Z,0.62
2023-02-06T19:51:38.507Z,0.59
2023-02-06T19:54:08.220Z,0.61
2023-02-06T19:56:39.662Z,0.61
2023-02-06T19:59:17.785Z,0.48
2023-02-06T20:01:46.579Z,0.45
2023-02-06T20:04:14.291Z,0.32
2023-02-06T20:06:43.900Z,0.19
2023-02-06T20:09:15.468Z,0.08
2023-02-06T20:11:43.586Z,0.10
2023-02-06T20:14:13.022Z,0.09
2023-02-06T20:16:42.618Z,0.13
2023-02-06T20:19:14.096Z,0.21
2023-02-06T20:21:43.574Z,0.17
2023-02-06T20:24:14.627Z,0.21
2023-02-06T20:26:43.981Z,0.20
2023-02-06T20:29:19.923Z,0.13
2023-02-06T20:31:47.696Z,0.07
2023-02-06T20:34:15.501Z,-0.12
2023-02-06T20:36:44.412Z,-0.10
2023-02-06T20:39:14.457Z,-0.17
2023-02-06T20:41:42.411Z,-0.20
2023-02-06T20:44:12.263Z,-0.16
2023-02-06T20:46:40.570Z,-0.15
2023-02-06T20:49:13.447Z,-0.20
2023-02-06T20:51:41.076Z,-0.28
2023-02-06T20:54:08.790Z,-0.35
2023-02-06T20:56:38.157Z,-0.44
2023-02-06T20:59:06.321Z,-0.41
2023-02-06T21:01:34.694Z,-0.45
2023-02-06T21:04:04.436Z,-0.37
2023-02-06T21:06:33.997Z,-0.41
2023-02-06T21:09:03.071Z,-0.26
2023-02-06T21:11:34.428Z,-0.15
2023-02-06T21:14:06.124Z,-0.17
2023-02-06T21:16:35.343Z,-0.14
2023-02-06T21:19:05.905Z,-0.11
2023-02-06T21:21:33.852Z,-0.11
2023-02-06T21:24:01.508Z,-0.18
2023-02-06T21:26:30.787Z,-0.25
2023-02-06T21:28:59.756Z,-0.37
2023-02-06T21:31:36.047Z,-0.49
2023-02-06T21:34:08.935Z,-0.66
2023-02-06T21:36:38.258Z,-0.71
2023-02-06T21:39:07.045Z,-0.76
2023-02-06T21:41:34.846Z,-0.74
2023-02-06T21:44:02.615Z,-0.80
2023-02-06T21:46:31.775Z,-0.83
2023-02-06T21:49:00.029Z,-0.78
2023-02-06T21:51:28.032Z,-0.74
2023-02-06T21:53:56.444Z,-0.75
2023-02-06T21:56:26.044Z,-0.87
2023-02-06T21:58:53.894Z,-0.84
2023-02-06T22:01:23.383Z,-0.91
2023-02-06T22:03:52.702Z,-0.90
2023-02-06T22:06:21.131Z,-0.88
2023-02-06T22:08:51.699Z,-0.88
2023-02-06T22:11:21.831Z,-0.94
2023-02-06T22:13:50.081Z,-0.96
2023-02-06T22:16:22.769Z,-0.96
2023-02-06T22:18:52.365Z,-0.98
2023-02-06T22:21:21.562Z,-1.00
2023-02-06T22:23:50.529Z,-1.03
2023-02-06T22:26:20.615Z,-1.18
2023-02-06T22:28:48.899Z,-1.19
2023-02-06T22:31:18.672Z,-1.15
2023-02-06T22:33:47.121Z,-1.21
2023-02-06T22:36:17.707Z,-1.13
2023-02-06T22:38:47.189Z,-1.16
2023-02-06T22:41:17.479Z,-1.15
2023-02-06T22:43:46.949Z,-1.18
2023-02-06T22:46:19.477Z,-1.22
2023-02-06T22:48:47.706Z,-1.21
2023-02-06T22:51:17.527Z,-1.21
2023-02-06T22:53:46.285Z,-1.28
2023-02-06T22:56:36.720Z,-1.37
2023-02-06T22:59:06.917Z,-1.41
2023-02-06T23:01:37.021Z,-1.55
2023-02-06T23:04:07.128Z,-1.64
2023-02-06T23:06:36.892Z,-1.60
2023-02-06T23:09:06.555Z,-1.73
2023-02-06T23:11:35.028Z,-1.79
2023-02-06T23:14:04.590Z,-1.81
2023-02-06T23:16:33.976Z,-1.79
2023-02-06T23:19:04.469Z,-1.75
2023-02-06T23:21:33.509Z,-1.75
2023-02-06T23:24:03.101Z,-1.82
2023-02-06T23:26:31.276Z,-1.77
2023-02-06T23:28:59.980Z,-1.79
2023-02-06T23:31:28.212Z,-1.70
2023-02-06T23:33:56.989Z,-1.67
2023-02-06T23:36:26.708Z,-1.72
2023-02-06T23:38:55.461Z,-1.70
2023-02-06T23:41:26.954Z,-1.80
2023-02-06T23:43:56.345Z,-1.85
2023-02-06T23:46:24.708Z,-1.99
2023-02-06T23:48:53.167Z,-1.98
2023-02-06T23:51:21.626Z,-1.92
2023-02-06T23:53:50.552Z,-1.84
2023-02-06T23:56:23.291Z,-1.90
2023-02-06T23:58:54.069Z,-1.91
